<?xml version="1.0" encoding="UTF-8" standalone="no" ?>
<gpx xmlns="http://www.topografix.com/GPX/1/1" xmlns:xsi="http://www.w3.org/2001/XMLSchema-instance" xsi:schemaLocation="http://www.topografix.com/GPX/1/1 http://www.topografix.com/GPX/1/1/gpx.xsd" version="1.1" creator="VisuGPX - https://www.visugpx.com">
  <metadata>
    <name>Guerande_Coteaux_13-23km</name>
    <desc><![CDATA[gnerando idor:8655485_13112441_15426717]]></desc>
  </metadata>
  <wpt lat="47.33101" lon="-2.42582">
    <ele>47</ele>
    <name><![CDATA[0000740]]></name>
  </wpt>
  <wpt lat="47.33141" lon="-2.42578">
    <ele>46</ele>
    <name><![CDATA[0000741]]></name>
  </wpt>
  <wpt lat="47.33133" lon="-2.42668">
    <ele>46</ele>
    <name><![CDATA[0000742]]></name>
  </wpt>
  <wpt lat="47.33143" lon="-2.42554">
    <ele>46</ele>
    <name><![CDATA[0000743]]></name>
  </wpt>
  <wpt lat="47.33101" lon="-2.42582">
    <ele>47</ele>
    <name><![CDATA[0000740]]></name>
  </wpt>
  <wpt lat="47.33141" lon="-2.42578">
    <ele>46</ele>
    <name><![CDATA[0000741]]></name>
  </wpt>
  <wpt lat="47.33133" lon="-2.42668">
    <ele>46</ele>
    <name><![CDATA[0000742]]></name>
  </wpt>
  <wpt lat="47.33143" lon="-2.42554">
    <ele>46</ele>
    <name><![CDATA[0000743]]></name>
  </wpt>
  <wpt lat="47.26827" lon="-1.54438">
    <ele>26.6</ele>
    <name><![CDATA[0001501]]></name>
    <desc><![CDATA[<p><br /><h3>Nom: Segment: 1</h3><br />Heure de départ: 12/21/2023 09:39<br/>Heure d'arrivée: 12/21/2023 19:56<br/>Distance: 112,7km (10:17)<br/>Temps déplacement: 07:03<br/>Vitesse moyenne: 10,95 km/h<br/>Vitesse moyenne mouv.: 15,96 km/h<br/>Vitesse Max.: 113,77 km/h<br/>Altitude minimale: 0 m<br/>Altitude maximale: 90 m<br/>Vitesse de montée: 194,2 m/h<br/>Vitesse de descente: -228,9 m/h<br/>Gain d'altitude: 826 m<br/>Perte d'altitude: -843 m<br/>Temps de montée: 04:15<br/>Temps de descente: 03:41<br/></p>]]></desc>
    <type><![CDATA[Point d'arrivée]]></type>
  </wpt>
  <wpt lat="47.33126" lon="-2.42617">
    <ele>46.4</ele>
    <name><![CDATA[0001500]]></name>
  </wpt>
  <wpt lat="47.26827" lon="-1.54438">
    <ele>26.6</ele>
    <name><![CDATA[0001501]]></name>
    <desc><![CDATA[<p><br /><h3>Nom: Segment: 1</h3><br />Heure de départ: 12/21/2023 09:39<br/>Heure d'arrivée: 12/21/2023 19:56<br/>Distance: 112,7km (10:17)<br/>Temps déplacement: 07:03<br/>Vitesse moyenne: 10,95 km/h<br/>Vitesse moyenne mouv.: 15,96 km/h<br/>Vitesse Max.: 113,77 km/h<br/>Altitude minimale: 0 m<br/>Altitude maximale: 90 m<br/>Vitesse de montée: 194,2 m/h<br/>Vitesse de descente: -228,9 m/h<br/>Gain d'altitude: 826 m<br/>Perte d'altitude: -843 m<br/>Temps de montée: 04:15<br/>Temps de descente: 03:41<br/></]]></desc>
  </wpt>
  <trk>
    <name><![CDATA[Guérande_Coteaux_GR3_23.4km-13112441]]></name>
    <extensions>
      <line xmlns="http://www.topografix.com/GPX/gpx_style/0/2">
        <color>0000FF</color>
        <width>4</width>
      </line>
    </extensions>
    <trkseg>
      <trkpt lat="47.33141" lon="-2.42634">
        <ele>46</ele>
        <time>2023-11-01T20:07:03Z</time>
      </trkpt>
      <trkpt lat="47.33136" lon="-2.4266">
        <ele>46</ele>
        <time>2023-11-01T20:07:27Z</time>
      </trkpt>
      <trkpt lat="47.33161" lon="-2.42734">
        <ele>47</ele>
        <time>2023-11-01T20:08:42Z</time>
      </trkpt>
      <trkpt lat="47.33167" lon="-2.42842">
        <ele>48</ele>
        <time>2023-11-01T20:10:20Z</time>
      </trkpt>
      <trkpt lat="47.33176" lon="-2.42867">
        <ele>48</ele>
        <time>2023-11-01T20:10:46Z</time>
      </trkpt>
      <trkpt lat="47.33187" lon="-2.42889">
        <ele>47</ele>
        <time>2023-11-01T20:11:11Z</time>
      </trkpt>
      <trkpt lat="47.33179" lon="-2.42914">
        <ele>48</ele>
        <time>2023-11-01T20:11:36Z</time>
      </trkpt>
      <trkpt lat="47.33186" lon="-2.43022">
        <ele>47</ele>
        <time>2023-11-01T20:13:14Z</time>
      </trkpt>
      <trkpt lat="47.33187" lon="-2.43104">
        <ele>47</ele>
        <time>2023-11-01T20:14:28Z</time>
      </trkpt>
      <trkpt lat="47.33165" lon="-2.43208">
        <ele>48</ele>
        <time>2023-11-01T20:16:06Z</time>
      </trkpt>
      <trkpt lat="47.33148" lon="-2.43257">
        <ele>47</ele>
        <time>2023-11-01T20:16:56Z</time>
      </trkpt>
      <trkpt lat="47.33083" lon="-2.43395">
        <ele>47</ele>
        <time>2023-11-01T20:19:28Z</time>
      </trkpt>
      <trkpt lat="47.33082" lon="-2.43422">
        <ele>47</ele>
        <time>2023-11-01T20:19:53Z</time>
      </trkpt>
      <trkpt lat="47.33105" lon="-2.43498">
        <ele>48</ele>
        <time>2023-11-01T20:21:08Z</time>
      </trkpt>
      <trkpt lat="47.33117" lon="-2.43552">
        <ele>48</ele>
        <time>2023-11-01T20:21:59Z</time>
      </trkpt>
      <trkpt lat="47.33123" lon="-2.43606">
        <ele>48</ele>
        <time>2023-11-01T20:22:49Z</time>
      </trkpt>
      <trkpt lat="47.33143" lon="-2.43683">
        <ele>47</ele>
        <time>2023-11-01T20:24:03Z</time>
      </trkpt>
      <trkpt lat="47.33165" lon="-2.43728">
        <ele>48</ele>
        <time>2023-11-01T20:24:54Z</time>
      </trkpt>
      <trkpt lat="47.33192" lon="-2.43803">
        <ele>47</ele>
        <time>2023-11-01T20:26:10Z</time>
      </trkpt>
      <trkpt lat="47.33222" lon="-2.43872">
        <ele>47</ele>
        <time>2023-11-01T20:27:25Z</time>
      </trkpt>
      <trkpt lat="47.33237" lon="-2.43886">
        <ele>48</ele>
        <time>2023-11-01T20:27:48Z</time>
      </trkpt>
      <trkpt lat="47.33273" lon="-2.43902">
        <ele>48</ele>
        <time>2023-11-01T20:28:38Z</time>
      </trkpt>
      <trkpt lat="47.33343" lon="-2.4394">
        <ele>48</ele>
        <time>2023-11-01T20:30:18Z</time>
      </trkpt>
      <trkpt lat="47.33404" lon="-2.44002">
        <ele>48</ele>
        <time>2023-11-01T20:31:57Z</time>
      </trkpt>
      <trkpt lat="47.33432" lon="-2.44039">
        <ele>48</ele>
        <time>2023-11-01T20:32:47Z</time>
      </trkpt>
      <trkpt lat="47.33462" lon="-2.44069">
        <ele>47</ele>
        <time>2023-11-01T20:33:35Z</time>
      </trkpt>
      <trkpt lat="47.33525" lon="-2.44125">
        <ele>48</ele>
        <time>2023-11-01T20:35:13Z</time>
      </trkpt>
      <trkpt lat="47.33575" lon="-2.44163">
        <ele>48</ele>
        <time>2023-11-01T20:36:28Z</time>
      </trkpt>
      <trkpt lat="47.33591" lon="-2.44178">
        <ele>48</ele>
        <time>2023-11-01T20:36:54Z</time>
      </trkpt>
      <trkpt lat="47.33675" lon="-2.44239">
        <ele>49</ele>
        <time>2023-11-01T20:38:59Z</time>
      </trkpt>
      <trkpt lat="47.33691" lon="-2.44253">
        <ele>49</ele>
        <time>2023-11-01T20:39:24Z</time>
      </trkpt>
      <trkpt lat="47.33705" lon="-2.44271">
        <ele>49</ele>
        <time>2023-11-01T20:39:48Z</time>
      </trkpt>
      <trkpt lat="47.33751" lon="-2.44314">
        <ele>47</ele>
        <time>2023-11-01T20:41:01Z</time>
      </trkpt>
      <trkpt lat="47.33769" lon="-2.44325">
        <ele>47</ele>
        <time>2023-11-01T20:41:27Z</time>
      </trkpt>
      <trkpt lat="47.33783" lon="-2.44343">
        <ele>46</ele>
        <time>2023-11-01T20:41:52Z</time>
      </trkpt>
      <trkpt lat="47.33801" lon="-2.44345">
        <ele>47</ele>
        <time>2023-11-01T20:42:16Z</time>
      </trkpt>
      <trkpt lat="47.3382" lon="-2.44343">
        <ele>47</ele>
        <time>2023-11-01T20:42:41Z</time>
      </trkpt>
      <trkpt lat="47.33838" lon="-2.44348">
        <ele>46</ele>
        <time>2023-11-01T20:43:06Z</time>
      </trkpt>
      <trkpt lat="47.33857" lon="-2.44348">
        <ele>46</ele>
        <time>2023-11-01T20:43:31Z</time>
      </trkpt>
      <trkpt lat="47.33875" lon="-2.44355">
        <ele>45</ele>
        <time>2023-11-01T20:43:56Z</time>
      </trkpt>
      <trkpt lat="47.33893" lon="-2.44351">
        <ele>44</ele>
        <time>2023-11-01T20:44:20Z</time>
      </trkpt>
      <trkpt lat="47.33912" lon="-2.44356">
        <ele>44</ele>
        <time>2023-11-01T20:44:46Z</time>
      </trkpt>
      <trkpt lat="47.34002" lon="-2.44399">
        <ele>42</ele>
        <time>2023-11-01T20:46:52Z</time>
      </trkpt>
      <trkpt lat="47.34034" lon="-2.44427">
        <ele>42</ele>
        <time>2023-11-01T20:47:42Z</time>
      </trkpt>
      <trkpt lat="47.34047" lon="-2.44446">
        <ele>42</ele>
        <time>2023-11-01T20:48:06Z</time>
      </trkpt>
      <trkpt lat="47.34046" lon="-2.44475">
        <ele>42</ele>
        <time>2023-11-01T20:48:33Z</time>
      </trkpt>
      <trkpt lat="47.34052" lon="-2.44584">
        <ele>42</ele>
        <time>2023-11-01T20:50:11Z</time>
      </trkpt>
      <trkpt lat="47.3405" lon="-2.4461">
        <ele>42</ele>
        <time>2023-11-01T20:50:35Z</time>
      </trkpt>
      <trkpt lat="47.34051" lon="-2.44665">
        <ele>42</ele>
        <time>2023-11-01T20:51:25Z</time>
      </trkpt>
      <trkpt lat="47.34034" lon="-2.44772">
        <ele>43</ele>
        <time>2023-11-01T20:53:04Z</time>
      </trkpt>
      <trkpt lat="47.34027" lon="-2.44797">
        <ele>43</ele>
        <time>2023-11-01T20:53:29Z</time>
      </trkpt>
      <trkpt lat="47.34017" lon="-2.44821">
        <ele>43</ele>
        <time>2023-11-01T20:53:54Z</time>
      </trkpt>
      <trkpt lat="47.33999" lon="-2.44898">
        <ele>45</ele>
        <time>2023-11-01T20:55:08Z</time>
      </trkpt>
      <trkpt lat="47.33991" lon="-2.44922">
        <ele>45</ele>
        <time>2023-11-01T20:55:32Z</time>
      </trkpt>
      <trkpt lat="47.33986" lon="-2.44948">
        <ele>45</ele>
        <time>2023-11-01T20:55:56Z</time>
      </trkpt>
      <trkpt lat="47.33986" lon="-2.44976">
        <ele>45</ele>
        <time>2023-11-01T20:56:22Z</time>
      </trkpt>
      <trkpt lat="47.34004" lon="-2.45055">
        <ele>46</ele>
        <time>2023-11-01T20:57:37Z</time>
      </trkpt>
      <trkpt lat="47.34037" lon="-2.45155">
        <ele>46</ele>
        <time>2023-11-01T20:59:18Z</time>
      </trkpt>
      <trkpt lat="47.34056" lon="-2.45233">
        <ele>47</ele>
        <time>2023-11-01T21:00:33Z</time>
      </trkpt>
      <trkpt lat="47.34066" lon="-2.45256">
        <ele>47</ele>
        <time>2023-11-01T21:00:57Z</time>
      </trkpt>
      <trkpt lat="47.34083" lon="-2.45247">
        <ele>47</ele>
        <time>2023-11-01T21:01:21Z</time>
      </trkpt>
      <trkpt lat="47.3415" lon="-2.45199">
        <ele>46</ele>
        <time>2023-11-01T21:03:01Z</time>
      </trkpt>
      <trkpt lat="47.343" lon="-2.45083">
        <ele>46</ele>
        <time>2023-11-01T21:06:47Z</time>
      </trkpt>
      <trkpt lat="47.3433" lon="-2.45053">
        <ele>47</ele>
        <time>2023-11-01T21:07:35Z</time>
      </trkpt>
      <trkpt lat="47.34388" lon="-2.44987">
        <ele>47</ele>
        <time>2023-11-01T21:09:13Z</time>
      </trkpt>
      <trkpt lat="47.34407" lon="-2.44993">
        <ele>46</ele>
        <time>2023-11-01T21:09:39Z</time>
      </trkpt>
      <trkpt lat="47.34416" lon="-2.45018">
        <ele>46</ele>
        <time>2023-11-01T21:10:04Z</time>
      </trkpt>
      <trkpt lat="47.34459" lon="-2.45112">
        <ele>44</ele>
        <time>2023-11-01T21:11:47Z</time>
      </trkpt>
      <trkpt lat="47.34471" lon="-2.45133">
        <ele>43</ele>
        <time>2023-11-01T21:12:12Z</time>
      </trkpt>
      <trkpt lat="47.34484" lon="-2.45152">
        <ele>43</ele>
        <time>2023-11-01T21:12:36Z</time>
      </trkpt>
      <trkpt lat="47.34513" lon="-2.45184">
        <ele>42</ele>
        <time>2023-11-01T21:13:25Z</time>
      </trkpt>
      <trkpt lat="47.3454" lon="-2.45222">
        <ele>42</ele>
        <time>2023-11-01T21:14:14Z</time>
      </trkpt>
      <trkpt lat="47.34565" lon="-2.45265">
        <ele>42</ele>
        <time>2023-11-01T21:15:06Z</time>
      </trkpt>
      <trkpt lat="47.34579" lon="-2.45282">
        <ele>43</ele>
        <time>2023-11-01T21:15:30Z</time>
      </trkpt>
      <trkpt lat="47.3459" lon="-2.45304">
        <ele>43</ele>
        <time>2023-11-01T21:15:55Z</time>
      </trkpt>
      <trkpt lat="47.34658" lon="-2.4547">
        <ele>42</ele>
        <time>2023-11-01T21:18:50Z</time>
      </trkpt>
      <trkpt lat="47.347" lon="-2.45593">
        <ele>44</ele>
        <time>2023-11-01T21:20:54Z</time>
      </trkpt>
      <trkpt lat="47.34734" lon="-2.45659">
        <ele>43</ele>
        <time>2023-11-01T21:22:09Z</time>
      </trkpt>
      <trkpt lat="47.34764" lon="-2.45729">
        <ele>43</ele>
        <time>2023-11-01T21:23:24Z</time>
      </trkpt>
      <trkpt lat="47.34781" lon="-2.45809">
        <ele>42</ele>
        <time>2023-11-01T21:24:40Z</time>
      </trkpt>
      <trkpt lat="47.34784" lon="-2.45836">
        <ele>42</ele>
        <time>2023-11-01T21:25:05Z</time>
      </trkpt>
      <trkpt lat="47.34783" lon="-2.45864">
        <ele>42</ele>
        <time>2023-11-01T21:25:30Z</time>
      </trkpt>
      <trkpt lat="47.34796" lon="-2.45915">
        <ele>40</ele>
        <time>2023-11-01T21:26:19Z</time>
      </trkpt>
      <trkpt lat="47.34804" lon="-2.45968">
        <ele>39</ele>
        <time>2023-11-01T21:27:09Z</time>
      </trkpt>
      <trkpt lat="47.34806" lon="-2.46023">
        <ele>38</ele>
        <time>2023-11-01T21:27:58Z</time>
      </trkpt>
      <trkpt lat="47.3482" lon="-2.46104">
        <ele>36</ele>
        <time>2023-11-01T21:29:14Z</time>
      </trkpt>
      <trkpt lat="47.34817" lon="-2.46131">
        <ele>37</ele>
        <time>2023-11-01T21:29:39Z</time>
      </trkpt>
      <trkpt lat="47.34821" lon="-2.46158">
        <ele>37</ele>
        <time>2023-11-01T21:30:04Z</time>
      </trkpt>
      <trkpt lat="47.34819" lon="-2.46186">
        <ele>38</ele>
        <time>2023-11-01T21:30:29Z</time>
      </trkpt>
      <trkpt lat="47.34824" lon="-2.46213">
        <ele>38</ele>
        <time>2023-11-01T21:30:54Z</time>
      </trkpt>
      <trkpt lat="47.34824" lon="-2.4624">
        <ele>39</ele>
        <time>2023-11-01T21:31:19Z</time>
      </trkpt>
      <trkpt lat="47.34828" lon="-2.46267">
        <ele>39</ele>
        <time>2023-11-01T21:31:44Z</time>
      </trkpt>
      <trkpt lat="47.34829" lon="-2.46295">
        <ele>38</ele>
        <time>2023-11-01T21:32:09Z</time>
      </trkpt>
      <trkpt lat="47.34845" lon="-2.4643">
        <ele>38</ele>
        <time>2023-11-01T21:34:13Z</time>
      </trkpt>
      <trkpt lat="47.34849" lon="-2.46457">
        <ele>38</ele>
        <time>2023-11-01T21:34:38Z</time>
      </trkpt>
      <trkpt lat="47.34856" lon="-2.46482">
        <ele>37</ele>
        <time>2023-11-01T21:35:03Z</time>
      </trkpt>
      <trkpt lat="47.34849" lon="-2.46536">
        <ele>38</ele>
        <time>2023-11-01T21:35:52Z</time>
      </trkpt>
      <trkpt lat="47.34852" lon="-2.46592">
        <ele>39</ele>
        <time>2023-11-01T21:36:43Z</time>
      </trkpt>
      <trkpt lat="47.34857" lon="-2.46618">
        <ele>40</ele>
        <time>2023-11-01T21:37:07Z</time>
      </trkpt>
      <trkpt lat="47.3487" lon="-2.46754">
        <ele>41</ele>
        <time>2023-11-01T21:39:12Z</time>
      </trkpt>
      <trkpt lat="47.34875" lon="-2.46837">
        <ele>41</ele>
        <time>2023-11-01T21:40:27Z</time>
      </trkpt>
      <trkpt lat="47.3489" lon="-2.46919">
        <ele>42</ele>
        <time>2023-11-01T21:41:44Z</time>
      </trkpt>
      <trkpt lat="47.34899" lon="-2.46999">
        <ele>44</ele>
        <time>2023-11-01T21:42:57Z</time>
      </trkpt>
      <trkpt lat="47.34905" lon="-2.47025">
        <ele>43</ele>
        <time>2023-11-01T21:43:22Z</time>
      </trkpt>
      <trkpt lat="47.3492" lon="-2.47075">
        <ele>43</ele>
        <time>2023-11-01T21:44:11Z</time>
      </trkpt>
      <trkpt lat="47.34969" lon="-2.47193">
        <ele>41</ele>
        <time>2023-11-01T21:46:17Z</time>
      </trkpt>
      <trkpt lat="47.35016" lon="-2.47343">
        <ele>39</ele>
        <time>2023-11-01T21:48:46Z</time>
      </trkpt>
      <trkpt lat="47.35025" lon="-2.47424">
        <ele>38</ele>
        <time>2023-11-01T21:50:00Z</time>
      </trkpt>
      <trkpt lat="47.35026" lon="-2.47453">
        <ele>38</ele>
        <time>2023-11-01T21:50:26Z</time>
      </trkpt>
      <trkpt lat="47.35032" lon="-2.4748">
        <ele>38</ele>
        <time>2023-11-01T21:50:52Z</time>
      </trkpt>
      <trkpt lat="47.3504" lon="-2.47562">
        <ele>37</ele>
        <time>2023-11-01T21:52:07Z</time>
      </trkpt>
      <trkpt lat="47.3504" lon="-2.4759">
        <ele>36</ele>
        <time>2023-11-01T21:52:32Z</time>
      </trkpt>
      <trkpt lat="47.35047" lon="-2.47674">
        <ele>36</ele>
        <time>2023-11-01T21:53:49Z</time>
      </trkpt>
      <trkpt lat="47.35033" lon="-2.47724">
        <ele>37</ele>
        <time>2023-11-01T21:54:38Z</time>
      </trkpt>
      <trkpt lat="47.35004" lon="-2.47758">
        <ele>37</ele>
        <time>2023-11-01T21:55:27Z</time>
      </trkpt>
      <trkpt lat="47.3498" lon="-2.47799">
        <ele>37</ele>
        <time>2023-11-01T21:56:16Z</time>
      </trkpt>
      <trkpt lat="47.34959" lon="-2.47846">
        <ele>36</ele>
        <time>2023-11-01T21:57:07Z</time>
      </trkpt>
      <trkpt lat="47.34934" lon="-2.47887">
        <ele>36</ele>
        <time>2023-11-01T21:57:57Z</time>
      </trkpt>
      <trkpt lat="47.34912" lon="-2.47929">
        <ele>36</ele>
        <time>2023-11-01T21:58:45Z</time>
      </trkpt>
      <trkpt lat="47.34898" lon="-2.47947">
        <ele>36</ele>
        <time>2023-11-01T21:59:10Z</time>
      </trkpt>
      <trkpt lat="47.34833" lon="-2.48046">
        <ele>35</ele>
        <time>2023-11-01T22:01:14Z</time>
      </trkpt>
      <trkpt lat="47.34819" lon="-2.48063">
        <ele>35</ele>
        <time>2023-11-01T22:01:39Z</time>
      </trkpt>
      <trkpt lat="47.34795" lon="-2.48103">
        <ele>34</ele>
        <time>2023-11-01T22:02:27Z</time>
      </trkpt>
      <trkpt lat="47.34764" lon="-2.48137">
        <ele>34</ele>
        <time>2023-11-01T22:03:18Z</time>
      </trkpt>
      <trkpt lat="47.34747" lon="-2.48148">
        <ele>34</ele>
        <time>2023-11-01T22:03:43Z</time>
      </trkpt>
      <trkpt lat="47.34693" lon="-2.48156">
        <ele>33</ele>
        <time>2023-11-01T22:04:56Z</time>
      </trkpt>
      <trkpt lat="47.34675" lon="-2.48165">
        <ele>33</ele>
        <time>2023-11-01T22:05:21Z</time>
      </trkpt>
      <trkpt lat="47.34627" lon="-2.48207">
        <ele>32</ele>
        <time>2023-11-01T22:06:35Z</time>
      </trkpt>
      <trkpt lat="47.34584" lon="-2.48259">
        <ele>31</ele>
        <time>2023-11-01T22:07:50Z</time>
      </trkpt>
      <trkpt lat="47.34571" lon="-2.48279">
        <ele>30</ele>
        <time>2023-11-01T22:08:15Z</time>
      </trkpt>
      <trkpt lat="47.3456" lon="-2.48302">
        <ele>29</ele>
        <time>2023-11-01T22:08:40Z</time>
      </trkpt>
      <trkpt lat="47.34552" lon="-2.48328">
        <ele>29</ele>
        <time>2023-11-01T22:09:06Z</time>
      </trkpt>
      <trkpt lat="47.34555" lon="-2.48381">
        <ele>29</ele>
        <time>2023-11-01T22:09:54Z</time>
      </trkpt>
      <trkpt lat="47.34547" lon="-2.48328">
        <ele>29</ele>
        <time>2023-11-01T22:10:43Z</time>
      </trkpt>
      <trkpt lat="47.34555" lon="-2.48303">
        <ele>29</ele>
        <time>2023-11-01T22:11:08Z</time>
      </trkpt>
      <trkpt lat="47.34542" lon="-2.48284">
        <ele>29</ele>
        <time>2023-11-01T22:11:33Z</time>
      </trkpt>
      <trkpt lat="47.34554" lon="-2.48338">
        <ele>29</ele>
        <time>2023-11-01T22:12:24Z</time>
      </trkpt>
      <trkpt lat="47.34554" lon="-2.48366">
        <ele>29</ele>
        <time>2023-11-01T22:12:49Z</time>
      </trkpt>
      <trkpt lat="47.34516" lon="-2.48425">
        <ele>27</ele>
        <time>2023-11-01T22:14:03Z</time>
      </trkpt>
      <trkpt lat="47.34513" lon="-2.48451">
        <ele>27</ele>
        <time>2023-11-01T22:14:27Z</time>
      </trkpt>
      <trkpt lat="47.34513" lon="-2.48506">
        <ele>26</ele>
        <time>2023-11-01T22:15:16Z</time>
      </trkpt>
      <trkpt lat="47.34477" lon="-2.48496">
        <ele>24</ele>
        <time>2023-11-01T22:16:05Z</time>
      </trkpt>
      <trkpt lat="47.34437" lon="-2.4844">
        <ele>23</ele>
        <time>2023-11-01T22:17:19Z</time>
      </trkpt>
      <trkpt lat="47.34404" lon="-2.48416">
        <ele>21</ele>
        <time>2023-11-01T22:18:08Z</time>
      </trkpt>
      <trkpt lat="47.34389" lon="-2.48401">
        <ele>19</ele>
        <time>2023-11-01T22:18:32Z</time>
      </trkpt>
      <trkpt lat="47.34372" lon="-2.48393">
        <ele>17</ele>
        <time>2023-11-01T22:18:56Z</time>
      </trkpt>
      <trkpt lat="47.34353" lon="-2.48391">
        <ele>14</ele>
        <time>2023-11-01T22:19:21Z</time>
      </trkpt>
      <trkpt lat="47.34318" lon="-2.48379">
        <ele>11</ele>
        <time>2023-11-01T22:20:09Z</time>
      </trkpt>
      <trkpt lat="47.34299" lon="-2.48379">
        <ele>10</ele>
        <time>2023-11-01T22:20:35Z</time>
      </trkpt>
      <trkpt lat="47.34281" lon="-2.48385">
        <ele>10</ele>
        <time>2023-11-01T22:20:59Z</time>
      </trkpt>
      <trkpt lat="47.34263" lon="-2.48386">
        <ele>10</ele>
        <time>2023-11-01T22:21:23Z</time>
      </trkpt>
      <trkpt lat="47.34245" lon="-2.48382">
        <ele>9</ele>
        <time>2023-11-01T22:21:48Z</time>
      </trkpt>
      <trkpt lat="47.34228" lon="-2.48373">
        <ele>9</ele>
        <time>2023-11-01T22:22:12Z</time>
      </trkpt>
      <trkpt lat="47.34212" lon="-2.4836">
        <ele>9</ele>
        <time>2023-11-01T22:22:36Z</time>
      </trkpt>
      <trkpt lat="47.3417" lon="-2.48305">
        <ele>10</ele>
        <time>2023-11-01T22:23:51Z</time>
      </trkpt>
      <trkpt lat="47.34155" lon="-2.48288">
        <ele>10</ele>
        <time>2023-11-01T22:24:16Z</time>
      </trkpt>
      <trkpt lat="47.34139" lon="-2.48275">
        <ele>10</ele>
        <time>2023-11-01T22:24:41Z</time>
      </trkpt>
      <trkpt lat="47.34067" lon="-2.48249">
        <ele>13</ele>
        <time>2023-11-01T22:26:20Z</time>
      </trkpt>
      <trkpt lat="47.34049" lon="-2.48246">
        <ele>13</ele>
        <time>2023-11-01T22:26:44Z</time>
      </trkpt>
      <trkpt lat="47.33975" lon="-2.48224">
        <ele>13</ele>
        <time>2023-11-01T22:28:25Z</time>
      </trkpt>
      <trkpt lat="47.33956" lon="-2.48225">
        <ele>13</ele>
        <time>2023-11-01T22:28:50Z</time>
      </trkpt>
      <trkpt lat="47.33938" lon="-2.48232">
        <ele>13</ele>
        <time>2023-11-01T22:29:15Z</time>
      </trkpt>
      <trkpt lat="47.33905" lon="-2.48255">
        <ele>13</ele>
        <time>2023-11-01T22:30:03Z</time>
      </trkpt>
      <trkpt lat="47.33886" lon="-2.48264">
        <ele>12</ele>
        <time>2023-11-01T22:30:30Z</time>
      </trkpt>
      <trkpt lat="47.33812" lon="-2.48287">
        <ele>11</ele>
        <time>2023-11-01T22:32:11Z</time>
      </trkpt>
      <trkpt lat="47.33777" lon="-2.48305">
        <ele>11</ele>
        <time>2023-11-01T22:33:00Z</time>
      </trkpt>
      <trkpt lat="47.33743" lon="-2.48326">
        <ele>10</ele>
        <time>2023-11-01T22:33:50Z</time>
      </trkpt>
      <trkpt lat="47.33725" lon="-2.48332">
        <ele>9</ele>
        <time>2023-11-01T22:34:14Z</time>
      </trkpt>
      <trkpt lat="47.33722" lon="-2.48306">
        <ele>9</ele>
        <time>2023-11-01T22:34:38Z</time>
      </trkpt>
      <trkpt lat="47.33731" lon="-2.48142">
        <ele>11</ele>
        <time>2023-11-01T22:37:07Z</time>
      </trkpt>
      <trkpt lat="47.33737" lon="-2.48116">
        <ele>11</ele>
        <time>2023-11-01T22:37:32Z</time>
      </trkpt>
      <trkpt lat="47.33744" lon="-2.4806">
        <ele>12</ele>
        <time>2023-11-01T22:38:23Z</time>
      </trkpt>
      <trkpt lat="47.33754" lon="-2.48007">
        <ele>13</ele>
        <time>2023-11-01T22:39:13Z</time>
      </trkpt>
      <trkpt lat="47.33767" lon="-2.47956">
        <ele>14</ele>
        <time>2023-11-01T22:40:02Z</time>
      </trkpt>
      <trkpt lat="47.33776" lon="-2.47932">
        <ele>14</ele>
        <time>2023-11-01T22:40:27Z</time>
      </trkpt>
      <trkpt lat="47.33847" lon="-2.47803">
        <ele>19</ele>
        <time>2023-11-01T22:42:57Z</time>
      </trkpt>
      <trkpt lat="47.33848" lon="-2.47775">
        <ele>20</ele>
        <time>2023-11-01T22:43:23Z</time>
      </trkpt>
      <trkpt lat="47.33793" lon="-2.47699">
        <ele>21</ele>
        <time>2023-11-01T22:45:03Z</time>
      </trkpt>
      <trkpt lat="47.33764" lon="-2.47664">
        <ele>22</ele>
        <time>2023-11-01T22:45:53Z</time>
      </trkpt>
      <trkpt lat="47.33755" lon="-2.47641">
        <ele>22</ele>
        <time>2023-11-01T22:46:17Z</time>
      </trkpt>
      <trkpt lat="47.3374" lon="-2.47625">
        <ele>22</ele>
        <time>2023-11-01T22:46:42Z</time>
      </trkpt>
      <trkpt lat="47.33722" lon="-2.47619">
        <ele>22</ele>
        <time>2023-11-01T22:47:07Z</time>
      </trkpt>
      <trkpt lat="47.33703" lon="-2.47619">
        <ele>22</ele>
        <time>2023-11-01T22:47:32Z</time>
      </trkpt>
      <trkpt lat="47.33685" lon="-2.47625">
        <ele>22</ele>
        <time>2023-11-01T22:47:57Z</time>
      </trkpt>
      <trkpt lat="47.33635" lon="-2.47663">
        <ele>21</ele>
        <time>2023-11-01T22:49:12Z</time>
      </trkpt>
      <trkpt lat="47.33618" lon="-2.47673">
        <ele>21</ele>
        <time>2023-11-01T22:49:36Z</time>
      </trkpt>
      <trkpt lat="47.33602" lon="-2.47689">
        <ele>21</ele>
        <time>2023-11-01T22:50:02Z</time>
      </trkpt>
      <trkpt lat="47.33586" lon="-2.47701">
        <ele>21</ele>
        <time>2023-11-01T22:50:26Z</time>
      </trkpt>
      <trkpt lat="47.33569" lon="-2.47697">
        <ele>20</ele>
        <time>2023-11-01T22:50:49Z</time>
      </trkpt>
      <trkpt lat="47.33553" lon="-2.47681">
        <ele>20</ele>
        <time>2023-11-01T22:51:15Z</time>
      </trkpt>
      <trkpt lat="47.33534" lon="-2.47675">
        <ele>20</ele>
        <time>2023-11-01T22:51:40Z</time>
      </trkpt>
      <trkpt lat="47.33519" lon="-2.47657">
        <ele>20</ele>
        <time>2023-11-01T22:52:06Z</time>
      </trkpt>
      <trkpt lat="47.33499" lon="-2.47613">
        <ele>22</ele>
        <time>2023-11-01T22:52:54Z</time>
      </trkpt>
      <trkpt lat="47.33483" lon="-2.47601">
        <ele>21</ele>
        <time>2023-11-01T22:53:18Z</time>
      </trkpt>
      <trkpt lat="47.3347" lon="-2.47581">
        <ele>21</ele>
        <time>2023-11-01T22:53:43Z</time>
      </trkpt>
      <trkpt lat="47.33448" lon="-2.47535">
        <ele>20</ele>
        <time>2023-11-01T22:54:34Z</time>
      </trkpt>
      <trkpt lat="47.3343" lon="-2.47486">
        <ele>20</ele>
        <time>2023-11-01T22:55:25Z</time>
      </trkpt>
      <trkpt lat="47.33419" lon="-2.47463">
        <ele>20</ele>
        <time>2023-11-01T22:55:50Z</time>
      </trkpt>
      <trkpt lat="47.33411" lon="-2.47409">
        <ele>21</ele>
        <time>2023-11-01T22:56:40Z</time>
      </trkpt>
      <trkpt lat="47.33394" lon="-2.4736">
        <ele>21</ele>
        <time>2023-11-01T22:57:30Z</time>
      </trkpt>
      <trkpt lat="47.33388" lon="-2.47334">
        <ele>21</ele>
        <time>2023-11-01T22:57:55Z</time>
      </trkpt>
      <trkpt lat="47.33383" lon="-2.47279">
        <ele>20</ele>
        <time>2023-11-01T22:58:45Z</time>
      </trkpt>
      <trkpt lat="47.33365" lon="-2.47144">
        <ele>19</ele>
        <time>2023-11-01T23:00:49Z</time>
      </trkpt>
      <trkpt lat="47.33351" lon="-2.47091">
        <ele>17</ele>
        <time>2023-11-01T23:01:41Z</time>
      </trkpt>
      <trkpt lat="47.33347" lon="-2.47037">
        <ele>17</ele>
        <time>2023-11-01T23:02:30Z</time>
      </trkpt>
      <trkpt lat="47.33342" lon="-2.47011">
        <ele>16</ele>
        <time>2023-11-01T23:02:54Z</time>
      </trkpt>
      <trkpt lat="47.33301" lon="-2.46858">
        <ele>23</ele>
        <time>2023-11-01T23:05:23Z</time>
      </trkpt>
      <trkpt lat="47.33284" lon="-2.4681">
        <ele>24</ele>
        <time>2023-11-01T23:06:12Z</time>
      </trkpt>
      <trkpt lat="47.33272" lon="-2.46789">
        <ele>24</ele>
        <time>2023-11-01T23:06:37Z</time>
      </trkpt>
      <trkpt lat="47.33255" lon="-2.46781">
        <ele>23</ele>
        <time>2023-11-01T23:07:01Z</time>
      </trkpt>
      <trkpt lat="47.33236" lon="-2.46788">
        <ele>22</ele>
        <time>2023-11-01T23:07:27Z</time>
      </trkpt>
      <trkpt lat="47.33218" lon="-2.46789">
        <ele>22</ele>
        <time>2023-11-01T23:07:51Z</time>
      </trkpt>
      <trkpt lat="47.33201" lon="-2.46775">
        <ele>21</ele>
        <time>2023-11-01T23:08:17Z</time>
      </trkpt>
      <trkpt lat="47.33156" lon="-2.46724">
        <ele>20</ele>
        <time>2023-11-01T23:09:33Z</time>
      </trkpt>
      <trkpt lat="47.33146" lon="-2.46701">
        <ele>19</ele>
        <time>2023-11-01T23:09:57Z</time>
      </trkpt>
      <trkpt lat="47.33133" lon="-2.46681">
        <ele>19</ele>
        <time>2023-11-01T23:10:22Z</time>
      </trkpt>
      <trkpt lat="47.33099" lon="-2.46617">
        <ele>18</ele>
        <time>2023-11-01T23:11:36Z</time>
      </trkpt>
      <trkpt lat="47.33078" lon="-2.4654">
        <ele>18</ele>
        <time>2023-11-01T23:12:51Z</time>
      </trkpt>
      <trkpt lat="47.33061" lon="-2.46532">
        <ele>17</ele>
        <time>2023-11-01T23:13:15Z</time>
      </trkpt>
      <trkpt lat="47.33043" lon="-2.4654">
        <ele>15</ele>
        <time>2023-11-01T23:13:40Z</time>
      </trkpt>
      <trkpt lat="47.33024" lon="-2.46538">
        <ele>13</ele>
        <time>2023-11-01T23:14:05Z</time>
      </trkpt>
      <trkpt lat="47.32989" lon="-2.46555">
        <ele>11</ele>
        <time>2023-11-01T23:14:54Z</time>
      </trkpt>
      <trkpt lat="47.32971" lon="-2.46561">
        <ele>10</ele>
        <time>2023-11-01T23:15:19Z</time>
      </trkpt>
      <trkpt lat="47.32955" lon="-2.46548">
        <ele>10</ele>
        <time>2023-11-01T23:15:43Z</time>
      </trkpt>
      <trkpt lat="47.3296" lon="-2.46467">
        <ele>12</ele>
        <time>2023-11-01T23:16:57Z</time>
      </trkpt>
      <trkpt lat="47.32962" lon="-2.46383">
        <ele>17</ele>
        <time>2023-11-01T23:18:13Z</time>
      </trkpt>
      <trkpt lat="47.3295" lon="-2.4633">
        <ele>20</ele>
        <time>2023-11-01T23:19:04Z</time>
      </trkpt>
      <trkpt lat="47.32899" lon="-2.46153">
        <ele>24</ele>
        <time>2023-11-01T23:21:58Z</time>
      </trkpt>
      <trkpt lat="47.32881" lon="-2.46159">
        <ele>22</ele>
        <time>2023-11-01T23:22:22Z</time>
      </trkpt>
      <trkpt lat="47.32864" lon="-2.4617">
        <ele>21</ele>
        <time>2023-11-01T23:22:47Z</time>
      </trkpt>
      <trkpt lat="47.32851" lon="-2.46189">
        <ele>19</ele>
        <time>2023-11-01T23:23:11Z</time>
      </trkpt>
      <trkpt lat="47.32834" lon="-2.46199">
        <ele>18</ele>
        <time>2023-11-01T23:23:36Z</time>
      </trkpt>
      <trkpt lat="47.32815" lon="-2.46189">
        <ele>17</ele>
        <time>2023-11-01T23:24:03Z</time>
      </trkpt>
      <trkpt lat="47.32797" lon="-2.46185">
        <ele>16</ele>
        <time>2023-11-01T23:24:27Z</time>
      </trkpt>
      <trkpt lat="47.32768" lon="-2.46152">
        <ele>14</ele>
        <time>2023-11-01T23:25:16Z</time>
      </trkpt>
      <trkpt lat="47.32762" lon="-2.46127">
        <ele>14</ele>
        <time>2023-11-01T23:25:40Z</time>
      </trkpt>
      <trkpt lat="47.32753" lon="-2.46103">
        <ele>14</ele>
        <time>2023-11-01T23:26:05Z</time>
      </trkpt>
      <trkpt lat="47.32741" lon="-2.46082">
        <ele>13</ele>
        <time>2023-11-01T23:26:29Z</time>
      </trkpt>
      <trkpt lat="47.32698" lon="-2.46029">
        <ele>10</ele>
        <time>2023-11-01T23:27:44Z</time>
      </trkpt>
      <trkpt lat="47.32671" lon="-2.4599">
        <ele>9</ele>
        <time>2023-11-01T23:28:35Z</time>
      </trkpt>
      <trkpt lat="47.32655" lon="-2.45978">
        <ele>9</ele>
        <time>2023-11-01T23:28:59Z</time>
      </trkpt>
      <trkpt lat="47.3264" lon="-2.45961">
        <ele>9</ele>
        <time>2023-11-01T23:29:24Z</time>
      </trkpt>
      <trkpt lat="47.32588" lon="-2.45884">
        <ele>10</ele>
        <time>2023-11-01T23:31:02Z</time>
      </trkpt>
      <trkpt lat="47.32573" lon="-2.45866">
        <ele>9</ele>
        <time>2023-11-01T23:31:28Z</time>
      </trkpt>
      <trkpt lat="47.32549" lon="-2.45824">
        <ele>9</ele>
        <time>2023-11-01T23:32:18Z</time>
      </trkpt>
      <trkpt lat="47.32534" lon="-2.45807">
        <ele>8</ele>
        <time>2023-11-01T23:32:43Z</time>
      </trkpt>
      <trkpt lat="47.325" lon="-2.45742">
        <ele>8</ele>
        <time>2023-11-01T23:33:57Z</time>
      </trkpt>
      <trkpt lat="47.32435" lon="-2.45641">
        <ele>9</ele>
        <time>2023-11-01T23:36:03Z</time>
      </trkpt>
      <trkpt lat="47.32413" lon="-2.45598">
        <ele>10</ele>
        <time>2023-11-01T23:36:52Z</time>
      </trkpt>
      <trkpt lat="47.32388" lon="-2.45557">
        <ele>10</ele>
        <time>2023-11-01T23:37:42Z</time>
      </trkpt>
      <trkpt lat="47.32381" lon="-2.45532">
        <ele>10</ele>
        <time>2023-11-01T23:38:06Z</time>
      </trkpt>
      <trkpt lat="47.32367" lon="-2.45512">
        <ele>10</ele>
        <time>2023-11-01T23:38:32Z</time>
      </trkpt>
      <trkpt lat="47.32344" lon="-2.45469">
        <ele>10</ele>
        <time>2023-11-01T23:39:22Z</time>
      </trkpt>
      <trkpt lat="47.32318" lon="-2.4543">
        <ele>10</ele>
        <time>2023-11-01T23:40:11Z</time>
      </trkpt>
      <trkpt lat="47.32318" lon="-2.45403">
        <ele>11</ele>
        <time>2023-11-01T23:40:36Z</time>
      </trkpt>
      <trkpt lat="47.32313" lon="-2.45348">
        <ele>11</ele>
        <time>2023-11-01T23:41:26Z</time>
      </trkpt>
      <trkpt lat="47.32314" lon="-2.45321">
        <ele>12</ele>
        <time>2023-11-01T23:41:50Z</time>
      </trkpt>
      <trkpt lat="47.32309" lon="-2.45294">
        <ele>12</ele>
        <time>2023-11-01T23:42:16Z</time>
      </trkpt>
      <trkpt lat="47.32294" lon="-2.45243">
        <ele>12</ele>
        <time>2023-11-01T23:43:06Z</time>
      </trkpt>
      <trkpt lat="47.32281" lon="-2.45222">
        <ele>12</ele>
        <time>2023-11-01T23:43:32Z</time>
      </trkpt>
      <trkpt lat="47.32272" lon="-2.45199">
        <ele>12</ele>
        <time>2023-11-01T23:43:56Z</time>
      </trkpt>
      <trkpt lat="47.32261" lon="-2.45146">
        <ele>13</ele>
        <time>2023-11-01T23:44:46Z</time>
      </trkpt>
      <trkpt lat="47.32245" lon="-2.45096">
        <ele>14</ele>
        <time>2023-11-01T23:45:36Z</time>
      </trkpt>
      <trkpt lat="47.32222" lon="-2.45052">
        <ele>14</ele>
        <time>2023-11-01T23:46:26Z</time>
      </trkpt>
      <trkpt lat="47.32222" lon="-2.45025">
        <ele>15</ele>
        <time>2023-11-01T23:46:51Z</time>
      </trkpt>
      <trkpt lat="47.32264" lon="-2.44974">
        <ele>19</ele>
        <time>2023-11-01T23:48:03Z</time>
      </trkpt>
      <trkpt lat="47.32309" lon="-2.44925">
        <ele>21</ele>
        <time>2023-11-01T23:49:18Z</time>
      </trkpt>
      <trkpt lat="47.3235" lon="-2.44869">
        <ele>24</ele>
        <time>2023-11-01T23:50:32Z</time>
      </trkpt>
      <trkpt lat="47.32381" lon="-2.44842">
        <ele>27</ele>
        <time>2023-11-01T23:51:20Z</time>
      </trkpt>
      <trkpt lat="47.32398" lon="-2.44832">
        <ele>28</ele>
        <time>2023-11-01T23:51:45Z</time>
      </trkpt>
      <trkpt lat="47.32466" lon="-2.44782">
        <ele>34</ele>
        <time>2023-11-01T23:53:26Z</time>
      </trkpt>
      <trkpt lat="47.32498" lon="-2.44754">
        <ele>36</ele>
        <time>2023-11-01T23:54:16Z</time>
      </trkpt>
      <trkpt lat="47.32515" lon="-2.44743">
        <ele>37</ele>
        <time>2023-11-01T23:54:41Z</time>
      </trkpt>
      <trkpt lat="47.32582" lon="-2.44648">
        <ele>40</ele>
        <time>2023-11-01T23:56:45Z</time>
      </trkpt>
      <trkpt lat="47.32597" lon="-2.44632">
        <ele>40</ele>
        <time>2023-11-01T23:57:09Z</time>
      </trkpt>
      <trkpt lat="47.32634" lon="-2.4457">
        <ele>41</ele>
        <time>2023-11-01T23:58:24Z</time>
      </trkpt>
      <trkpt lat="47.32645" lon="-2.44547">
        <ele>41</ele>
        <time>2023-11-01T23:58:50Z</time>
      </trkpt>
      <trkpt lat="47.3267" lon="-2.44508">
        <ele>42</ele>
        <time>2023-11-01T23:59:38Z</time>
      </trkpt>
      <trkpt lat="47.32703" lon="-2.44481">
        <ele>42</ele>
        <time>2023-11-02T00:00:28Z</time>
      </trkpt>
      <trkpt lat="47.32721" lon="-2.4447">
        <ele>43</ele>
        <time>2023-11-02T00:00:54Z</time>
      </trkpt>
      <trkpt lat="47.32751" lon="-2.44439">
        <ele>43</ele>
        <time>2023-11-02T00:01:43Z</time>
      </trkpt>
      <trkpt lat="47.32743" lon="-2.44414">
        <ele>43</ele>
        <time>2023-11-02T00:02:08Z</time>
      </trkpt>
      <trkpt lat="47.32755" lon="-2.44394">
        <ele>43</ele>
        <time>2023-11-02T00:02:32Z</time>
      </trkpt>
      <trkpt lat="47.32759" lon="-2.44338">
        <ele>42</ele>
        <time>2023-11-02T00:03:23Z</time>
      </trkpt>
      <trkpt lat="47.3277" lon="-2.44258">
        <ele>43</ele>
        <time>2023-11-02T00:04:37Z</time>
      </trkpt>
      <trkpt lat="47.32773" lon="-2.44202">
        <ele>43</ele>
        <time>2023-11-02T00:05:28Z</time>
      </trkpt>
      <trkpt lat="47.32772" lon="-2.44147">
        <ele>44</ele>
        <time>2023-11-02T00:06:18Z</time>
      </trkpt>
      <trkpt lat="47.32766" lon="-2.44092">
        <ele>45</ele>
        <time>2023-11-02T00:07:08Z</time>
      </trkpt>
      <trkpt lat="47.32749" lon="-2.44013">
        <ele>44</ele>
        <time>2023-11-02T00:08:23Z</time>
      </trkpt>
      <trkpt lat="47.32742" lon="-2.43958">
        <ele>43</ele>
        <time>2023-11-02T00:09:14Z</time>
      </trkpt>
      <trkpt lat="47.32726" lon="-2.43879">
        <ele>43</ele>
        <time>2023-11-02T00:10:28Z</time>
      </trkpt>
      <trkpt lat="47.32717" lon="-2.43855">
        <ele>44</ele>
        <time>2023-11-02T00:10:53Z</time>
      </trkpt>
      <trkpt lat="47.32725" lon="-2.4383">
        <ele>44</ele>
        <time>2023-11-02T00:11:18Z</time>
      </trkpt>
      <trkpt lat="47.3273" lon="-2.43776">
        <ele>45</ele>
        <time>2023-11-02T00:12:08Z</time>
      </trkpt>
      <trkpt lat="47.3273" lon="-2.43668">
        <ele>46</ele>
        <time>2023-11-02T00:13:45Z</time>
      </trkpt>
      <trkpt lat="47.32715" lon="-2.43587">
        <ele>46</ele>
        <time>2023-11-02T00:15:01Z</time>
      </trkpt>
      <trkpt lat="47.32718" lon="-2.43532">
        <ele>45</ele>
        <time>2023-11-02T00:15:51Z</time>
      </trkpt>
      <trkpt lat="47.32712" lon="-2.43505">
        <ele>45</ele>
        <time>2023-11-02T00:16:17Z</time>
      </trkpt>
      <trkpt lat="47.32713" lon="-2.43478">
        <ele>45</ele>
        <time>2023-11-02T00:16:41Z</time>
      </trkpt>
      <trkpt lat="47.32709" lon="-2.43451">
        <ele>45</ele>
        <time>2023-11-02T00:17:06Z</time>
      </trkpt>
      <trkpt lat="47.32709" lon="-2.43424">
        <ele>45</ele>
        <time>2023-11-02T00:17:31Z</time>
      </trkpt>
      <trkpt lat="47.32703" lon="-2.43368">
        <ele>45</ele>
        <time>2023-11-02T00:18:22Z</time>
      </trkpt>
      <trkpt lat="47.32707" lon="-2.43341">
        <ele>45</ele>
        <time>2023-11-02T00:18:47Z</time>
      </trkpt>
      <trkpt lat="47.32701" lon="-2.43314">
        <ele>45</ele>
        <time>2023-11-02T00:19:13Z</time>
      </trkpt>
      <trkpt lat="47.3271" lon="-2.4329">
        <ele>46</ele>
        <time>2023-11-02T00:19:37Z</time>
      </trkpt>
      <trkpt lat="47.32713" lon="-2.43262">
        <ele>46</ele>
        <time>2023-11-02T00:20:03Z</time>
      </trkpt>
      <trkpt lat="47.32708" lon="-2.43236">
        <ele>47</ele>
        <time>2023-11-02T00:20:28Z</time>
      </trkpt>
      <trkpt lat="47.32706" lon="-2.43208">
        <ele>48</ele>
        <time>2023-11-02T00:20:53Z</time>
      </trkpt>
      <trkpt lat="47.32717" lon="-2.43155">
        <ele>50</ele>
        <time>2023-11-02T00:21:43Z</time>
      </trkpt>
      <trkpt lat="47.32716" lon="-2.43127">
        <ele>51</ele>
        <time>2023-11-02T00:22:08Z</time>
      </trkpt>
      <trkpt lat="47.32719" lon="-2.431">
        <ele>52</ele>
        <time>2023-11-02T00:22:33Z</time>
      </trkpt>
      <trkpt lat="47.32734" lon="-2.43049">
        <ele>53</ele>
        <time>2023-11-02T00:23:24Z</time>
      </trkpt>
      <trkpt lat="47.32745" lon="-2.43026">
        <ele>54</ele>
        <time>2023-11-02T00:23:49Z</time>
      </trkpt>
      <trkpt lat="47.32752" lon="-2.43">
        <ele>54</ele>
        <time>2023-11-02T00:24:14Z</time>
      </trkpt>
      <trkpt lat="47.32762" lon="-2.42975">
        <ele>54</ele>
        <time>2023-11-02T00:24:41Z</time>
      </trkpt>
      <trkpt lat="47.32769" lon="-2.42949">
        <ele>55</ele>
        <time>2023-11-02T00:25:06Z</time>
      </trkpt>
      <trkpt lat="47.32772" lon="-2.42921">
        <ele>55</ele>
        <time>2023-11-02T00:25:31Z</time>
      </trkpt>
      <trkpt lat="47.3275" lon="-2.42847">
        <ele>54</ele>
        <time>2023-11-02T00:26:45Z</time>
      </trkpt>
      <trkpt lat="47.32746" lon="-2.4282">
        <ele>54</ele>
        <time>2023-11-02T00:27:10Z</time>
      </trkpt>
      <trkpt lat="47.32727" lon="-2.42741">
        <ele>51</ele>
        <time>2023-11-02T00:28:25Z</time>
      </trkpt>
      <trkpt lat="47.32725" lon="-2.42713">
        <ele>51</ele>
        <time>2023-11-02T00:28:51Z</time>
      </trkpt>
      <trkpt lat="47.32738" lon="-2.42693">
        <ele>50</ele>
        <time>2023-11-02T00:29:16Z</time>
      </trkpt>
      <trkpt lat="47.32757" lon="-2.42694">
        <ele>51</ele>
        <time>2023-11-02T00:29:41Z</time>
      </trkpt>
      <trkpt lat="47.32794" lon="-2.42701">
        <ele>52</ele>
        <time>2023-11-02T00:30:31Z</time>
      </trkpt>
      <trkpt lat="47.32813" lon="-2.42707">
        <ele>53</ele>
        <time>2023-11-02T00:30:57Z</time>
      </trkpt>
      <trkpt lat="47.32831" lon="-2.42706">
        <ele>53</ele>
        <time>2023-11-02T00:31:21Z</time>
      </trkpt>
      <trkpt lat="47.32849" lon="-2.42714">
        <ele>53</ele>
        <time>2023-11-02T00:31:46Z</time>
      </trkpt>
      <trkpt lat="47.32869" lon="-2.42706">
        <ele>52</ele>
        <time>2023-11-02T00:32:14Z</time>
      </trkpt>
      <trkpt lat="47.32883" lon="-2.42655">
        <ele>51</ele>
        <time>2023-11-02T00:33:04Z</time>
      </trkpt>
      <trkpt lat="47.32888" lon="-2.42627">
        <ele>51</ele>
        <time>2023-11-02T00:33:30Z</time>
      </trkpt>
      <trkpt lat="47.32903" lon="-2.42614">
        <ele>50</ele>
        <time>2023-11-02T00:33:53Z</time>
      </trkpt>
      <trkpt lat="47.3292" lon="-2.42625">
        <ele>50</ele>
        <time>2023-11-02T00:34:18Z</time>
      </trkpt>
      <trkpt lat="47.32937" lon="-2.4264">
        <ele>50</ele>
        <time>2023-11-02T00:34:44Z</time>
      </trkpt>
      <trkpt lat="47.32968" lon="-2.42672">
        <ele>50</ele>
        <time>2023-11-02T00:35:35Z</time>
      </trkpt>
      <trkpt lat="47.32982" lon="-2.4269">
        <ele>50</ele>
        <time>2023-11-02T00:35:59Z</time>
      </trkpt>
      <trkpt lat="47.33" lon="-2.42684">
        <ele>49</ele>
        <time>2023-11-02T00:36:24Z</time>
      </trkpt>
      <trkpt lat="47.33054" lon="-2.4266">
        <ele>48</ele>
        <time>2023-11-02T00:37:39Z</time>
      </trkpt>
      <trkpt lat="47.33071" lon="-2.4265">
        <ele>48</ele>
        <time>2023-11-02T00:38:04Z</time>
      </trkpt>
      <trkpt lat="47.33087" lon="-2.42635">
        <ele>48</ele>
        <time>2023-11-02T00:38:29Z</time>
      </trkpt>
      <trkpt lat="47.33097" lon="-2.42613">
        <ele>47</ele>
        <time>2023-11-02T00:38:53Z</time>
      </trkpt>
      <trkpt lat="47.33114" lon="-2.42601">
        <ele>46</ele>
        <time>2023-11-02T00:39:18Z</time>
      </trkpt>
      <trkpt lat="47.3313" lon="-2.42615">
        <ele>46</ele>
        <time>2023-11-02T00:39:43Z</time>
      </trkpt>
      <trkpt lat="47.33146" lon="-2.42601">
        <ele>46</ele>
        <time>2023-11-02T00:40:08Z</time>
      </trkpt>
      <trkpt lat="47.33173" lon="-2.42529">
        <ele>46</ele>
        <time>2023-11-02T00:41:22Z</time>
      </trkpt>
      <trkpt lat="47.33243" lon="-2.42491">
        <ele>47</ele>
        <time>2023-11-02T00:43:02Z</time>
      </trkpt>
      <trkpt lat="47.33261" lon="-2.42489">
        <ele>47</ele>
        <time>2023-11-02T00:43:26Z</time>
      </trkpt>
      <trkpt lat="47.33276" lon="-2.42503">
        <ele>47</ele>
        <time>2023-11-02T00:43:50Z</time>
      </trkpt>
      <trkpt lat="47.33137" lon="-2.42627">
        <ele>46</ele>
        <time>2023-11-02T00:47:26Z</time>
      </trkpt>
      <trkpt lat="47.33113" lon="-2.42587">
        <ele>46</ele>
        <time>2023-11-02T00:48:15Z</time>
      </trkpt>
      <trkpt lat="47.33094" lon="-2.42584">
        <ele>47</ele>
        <time>2023-11-02T00:48:40Z</time>
      </trkpt>
      <trkpt lat="47.33088" lon="-2.42559">
        <ele>47</ele>
        <time>2023-11-02T00:49:04Z</time>
      </trkpt>
      <trkpt lat="47.33079" lon="-2.42535">
        <ele>48</ele>
        <time>2023-11-02T00:49:29Z</time>
      </trkpt>
      <trkpt lat="47.33056" lon="-2.42491">
        <ele>48</ele>
        <time>2023-11-02T00:50:19Z</time>
      </trkpt>
      <trkpt lat="47.33039" lon="-2.42441">
        <ele>48</ele>
        <time>2023-11-02T00:51:10Z</time>
      </trkpt>
      <trkpt lat="47.33012" lon="-2.42402">
        <ele>48</ele>
        <time>2023-11-02T00:52:00Z</time>
      </trkpt>
      <trkpt lat="47.33001" lon="-2.4238">
        <ele>48</ele>
        <time>2023-11-02T00:52:25Z</time>
      </trkpt>
      <trkpt lat="47.32982" lon="-2.42331">
        <ele>48</ele>
        <time>2023-11-02T00:53:16Z</time>
      </trkpt>
      <trkpt lat="47.32952" lon="-2.42264">
        <ele>47</ele>
        <time>2023-11-02T00:54:29Z</time>
      </trkpt>
      <trkpt lat="47.32935" lon="-2.42214">
        <ele>46</ele>
        <time>2023-11-02T00:55:19Z</time>
      </trkpt>
      <trkpt lat="47.32922" lon="-2.42195">
        <ele>45</ele>
        <time>2023-11-02T00:55:44Z</time>
      </trkpt>
      <trkpt lat="47.32912" lon="-2.42173">
        <ele>45</ele>
        <time>2023-11-02T00:56:08Z</time>
      </trkpt>
      <trkpt lat="47.32897" lon="-2.42123">
        <ele>44</ele>
        <time>2023-11-02T00:56:57Z</time>
      </trkpt>
      <trkpt lat="47.32879" lon="-2.42115">
        <ele>44</ele>
        <time>2023-11-02T00:57:22Z</time>
      </trkpt>
      <trkpt lat="47.32864" lon="-2.421">
        <ele>45</ele>
        <time>2023-11-02T00:57:46Z</time>
      </trkpt>
      <trkpt lat="47.32833" lon="-2.42033">
        <ele>44</ele>
        <time>2023-11-02T00:59:00Z</time>
      </trkpt>
      <trkpt lat="47.32825" lon="-2.42008">
        <ele>43</ele>
        <time>2023-11-02T00:59:25Z</time>
      </trkpt>
      <trkpt lat="47.32809" lon="-2.41994">
        <ele>44</ele>
        <time>2023-11-02T00:59:49Z</time>
      </trkpt>
      <trkpt lat="47.32796" lon="-2.41944">
        <ele>45</ele>
        <time>2023-11-02T01:00:38Z</time>
      </trkpt>
      <trkpt lat="47.32774" lon="-2.41899">
        <ele>47</ele>
        <time>2023-11-02T01:01:28Z</time>
      </trkpt>
      <trkpt lat="47.32746" lon="-2.41827">
        <ele>48</ele>
        <time>2023-11-02T01:02:43Z</time>
      </trkpt>
      <trkpt lat="47.32724" lon="-2.41783">
        <ele>48</ele>
        <time>2023-11-02T01:03:33Z</time>
      </trkpt>
      <trkpt lat="47.32709" lon="-2.41766">
        <ele>48</ele>
        <time>2023-11-02T01:03:58Z</time>
      </trkpt>
      <trkpt lat="47.32707" lon="-2.4174">
        <ele>48</ele>
        <time>2023-11-02T01:04:22Z</time>
      </trkpt>
      <trkpt lat="47.32714" lon="-2.4163">
        <ele>46</ele>
        <time>2023-11-02T01:06:01Z</time>
      </trkpt>
      <trkpt lat="47.32706" lon="-2.41606">
        <ele>47</ele>
        <time>2023-11-02T01:06:26Z</time>
      </trkpt>
      <trkpt lat="47.32701" lon="-2.41579">
        <ele>47</ele>
        <time>2023-11-02T01:06:51Z</time>
      </trkpt>
      <trkpt lat="47.32728" lon="-2.41539">
        <ele>47</ele>
        <time>2023-11-02T01:07:42Z</time>
      </trkpt>
      <trkpt lat="47.32735" lon="-2.41514">
        <ele>47</ele>
        <time>2023-11-02T01:08:07Z</time>
      </trkpt>
      <trkpt lat="47.32741" lon="-2.4146">
        <ele>47</ele>
        <time>2023-11-02T01:08:56Z</time>
      </trkpt>
      <trkpt lat="47.32737" lon="-2.41404">
        <ele>47</ele>
        <time>2023-11-02T01:09:47Z</time>
      </trkpt>
      <trkpt lat="47.32727" lon="-2.41352">
        <ele>48</ele>
        <time>2023-11-02T01:10:36Z</time>
      </trkpt>
      <trkpt lat="47.32742" lon="-2.41336">
        <ele>47</ele>
        <time>2023-11-02T01:11:01Z</time>
      </trkpt>
      <trkpt lat="47.32746" lon="-2.4131">
        <ele>47</ele>
        <time>2023-11-02T01:11:25Z</time>
      </trkpt>
      <trkpt lat="47.32763" lon="-2.41298">
        <ele>47</ele>
        <time>2023-11-02T01:11:50Z</time>
      </trkpt>
      <trkpt lat="47.32801" lon="-2.41289">
        <ele>46</ele>
        <time>2023-11-02T01:12:41Z</time>
      </trkpt>
      <trkpt lat="47.32819" lon="-2.41292">
        <ele>46</ele>
        <time>2023-11-02T01:13:05Z</time>
      </trkpt>
      <trkpt lat="47.32837" lon="-2.41285">
        <ele>46</ele>
        <time>2023-11-02T01:13:30Z</time>
      </trkpt>
      <trkpt lat="47.32912" lon="-2.41277">
        <ele>47</ele>
        <time>2023-11-02T01:15:11Z</time>
      </trkpt>
      <trkpt lat="47.3293" lon="-2.41278">
        <ele>46</ele>
        <time>2023-11-02T01:15:35Z</time>
      </trkpt>
      <trkpt lat="47.32948" lon="-2.41271">
        <ele>46</ele>
        <time>2023-11-02T01:15:59Z</time>
      </trkpt>
      <trkpt lat="47.32985" lon="-2.41265">
        <ele>45</ele>
        <time>2023-11-02T01:16:49Z</time>
      </trkpt>
      <trkpt lat="47.33002" lon="-2.41252">
        <ele>45</ele>
        <time>2023-11-02T01:17:15Z</time>
      </trkpt>
      <trkpt lat="47.33012" lon="-2.4123">
        <ele>45</ele>
        <time>2023-11-02T01:17:39Z</time>
      </trkpt>
      <trkpt lat="47.33025" lon="-2.4121">
        <ele>45</ele>
        <time>2023-11-02T01:18:04Z</time>
      </trkpt>
      <trkpt lat="47.33045" lon="-2.41162">
        <ele>44</ele>
        <time>2023-11-02T01:18:55Z</time>
      </trkpt>
      <trkpt lat="47.33067" lon="-2.41117">
        <ele>44</ele>
        <time>2023-11-02T01:19:45Z</time>
      </trkpt>
      <trkpt lat="47.33131" lon="-2.40944">
        <ele>43</ele>
        <time>2023-11-02T01:22:43Z</time>
      </trkpt>
      <trkpt lat="47.33219" lon="-2.40798">
        <ele>42</ele>
        <time>2023-11-02T01:25:40Z</time>
      </trkpt>
      <trkpt lat="47.33227" lon="-2.40774">
        <ele>42</ele>
        <time>2023-11-02T01:26:04Z</time>
      </trkpt>
      <trkpt lat="47.33236" lon="-2.40693">
        <ele>39</ele>
        <time>2023-11-02T01:27:18Z</time>
      </trkpt>
      <trkpt lat="47.33252" lon="-2.40643">
        <ele>38</ele>
        <time>2023-11-02T01:28:08Z</time>
      </trkpt>
      <trkpt lat="47.33272" lon="-2.40565">
        <ele>36</ele>
        <time>2023-11-02T01:29:24Z</time>
      </trkpt>
      <trkpt lat="47.33281" lon="-2.4054">
        <ele>36</ele>
        <time>2023-11-02T01:29:49Z</time>
      </trkpt>
      <trkpt lat="47.33303" lon="-2.40496">
        <ele>36</ele>
        <time>2023-11-02T01:30:39Z</time>
      </trkpt>
      <trkpt lat="47.3331" lon="-2.40417">
        <ele>37</ele>
        <time>2023-11-02T01:31:51Z</time>
      </trkpt>
      <trkpt lat="47.33308" lon="-2.4039">
        <ele>39</ele>
        <time>2023-11-02T01:32:15Z</time>
      </trkpt>
      <trkpt lat="47.33326" lon="-2.40314">
        <ele>42</ele>
        <time>2023-11-02T01:33:28Z</time>
      </trkpt>
      <trkpt lat="47.33339" lon="-2.40233">
        <ele>43</ele>
        <time>2023-11-02T01:34:43Z</time>
      </trkpt>
      <trkpt lat="47.33346" lon="-2.40125">
        <ele>43</ele>
        <time>2023-11-02T01:36:22Z</time>
      </trkpt>
      <trkpt lat="47.33357" lon="-2.40045">
        <ele>43</ele>
        <time>2023-11-02T01:37:35Z</time>
      </trkpt>
      <trkpt lat="47.3338" lon="-2.40002">
        <ele>42</ele>
        <time>2023-11-02T01:38:25Z</time>
      </trkpt>
      <trkpt lat="47.33394" lon="-2.39985">
        <ele>42</ele>
        <time>2023-11-02T01:38:49Z</time>
      </trkpt>
      <trkpt lat="47.33405" lon="-2.39964">
        <ele>41</ele>
        <time>2023-11-02T01:39:13Z</time>
      </trkpt>
      <trkpt lat="47.33421" lon="-2.39947">
        <ele>41</ele>
        <time>2023-11-02T01:39:39Z</time>
      </trkpt>
      <trkpt lat="47.33486" lon="-2.39846">
        <ele>38</ele>
        <time>2023-11-02T01:41:45Z</time>
      </trkpt>
      <trkpt lat="47.33501" lon="-2.39828">
        <ele>38</ele>
        <time>2023-11-02T01:42:11Z</time>
      </trkpt>
      <trkpt lat="47.33541" lon="-2.39769">
        <ele>36</ele>
        <time>2023-11-02T01:43:27Z</time>
      </trkpt>
      <trkpt lat="47.33555" lon="-2.39753">
        <ele>36</ele>
        <time>2023-11-02T01:43:50Z</time>
      </trkpt>
      <trkpt lat="47.33573" lon="-2.39743">
        <ele>36</ele>
        <time>2023-11-02T01:44:16Z</time>
      </trkpt>
      <trkpt lat="47.33587" lon="-2.39726">
        <ele>36</ele>
        <time>2023-11-02T01:44:40Z</time>
      </trkpt>
      <trkpt lat="47.3361" lon="-2.39683">
        <ele>36</ele>
        <time>2023-11-02T01:45:30Z</time>
      </trkpt>
      <trkpt lat="47.33624" lon="-2.39663">
        <ele>36</ele>
        <time>2023-11-02T01:45:56Z</time>
      </trkpt>
      <trkpt lat="47.33652" lon="-2.39592">
        <ele>38</ele>
        <time>2023-11-02T01:47:10Z</time>
      </trkpt>
      <trkpt lat="47.33694" lon="-2.39467">
        <ele>39</ele>
        <time>2023-11-02T01:49:16Z</time>
      </trkpt>
      <trkpt lat="47.33699" lon="-2.39441">
        <ele>38</ele>
        <time>2023-11-02T01:49:41Z</time>
      </trkpt>
      <trkpt lat="47.337" lon="-2.39413">
        <ele>38</ele>
        <time>2023-11-02T01:50:06Z</time>
      </trkpt>
      <trkpt lat="47.3371" lon="-2.39331">
        <ele>36</ele>
        <time>2023-11-02T01:51:21Z</time>
      </trkpt>
      <trkpt lat="47.33718" lon="-2.39307">
        <ele>36</ele>
        <time>2023-11-02T01:51:45Z</time>
      </trkpt>
      <trkpt lat="47.33735" lon="-2.39295">
        <ele>35</ele>
        <time>2023-11-02T01:52:11Z</time>
      </trkpt>
      <trkpt lat="47.33773" lon="-2.39298">
        <ele>35</ele>
        <time>2023-11-02T01:53:01Z</time>
      </trkpt>
      <trkpt lat="47.33791" lon="-2.39291">
        <ele>34</ele>
        <time>2023-11-02T01:53:26Z</time>
      </trkpt>
      <trkpt lat="47.33846" lon="-2.39285">
        <ele>33</ele>
        <time>2023-11-02T01:54:40Z</time>
      </trkpt>
      <trkpt lat="47.33918" lon="-2.39273">
        <ele>33</ele>
        <time>2023-11-02T01:56:17Z</time>
      </trkpt>
      <trkpt lat="47.33955" lon="-2.39262">
        <ele>32</ele>
        <time>2023-11-02T01:57:07Z</time>
      </trkpt>
      <trkpt lat="47.3403" lon="-2.39252">
        <ele>30</ele>
        <time>2023-11-02T01:58:47Z</time>
      </trkpt>
      <trkpt lat="47.34049" lon="-2.39252">
        <ele>30</ele>
        <time>2023-11-02T01:59:13Z</time>
      </trkpt>
      <trkpt lat="47.34063" lon="-2.39268">
        <ele>30</ele>
        <time>2023-11-02T01:59:36Z</time>
      </trkpt>
      <trkpt lat="47.34087" lon="-2.39404">
        <ele>32</ele>
        <time>2023-11-02T02:01:43Z</time>
      </trkpt>
      <trkpt lat="47.34099" lon="-2.39424">
        <ele>32</ele>
        <time>2023-11-02T02:02:08Z</time>
      </trkpt>
      <trkpt lat="47.34118" lon="-2.39419">
        <ele>31</ele>
        <time>2023-11-02T02:02:33Z</time>
      </trkpt>
      <trkpt lat="47.34187" lon="-2.39373">
        <ele>30</ele>
        <time>2023-11-02T02:04:14Z</time>
      </trkpt>
      <trkpt lat="47.34205" lon="-2.39366">
        <ele>30</ele>
        <time>2023-11-02T02:04:39Z</time>
      </trkpt>
      <trkpt lat="47.34239" lon="-2.39346">
        <ele>30</ele>
        <time>2023-11-02T02:05:28Z</time>
      </trkpt>
      <trkpt lat="47.34272" lon="-2.3932">
        <ele>29</ele>
        <time>2023-11-02T02:06:18Z</time>
      </trkpt>
      <trkpt lat="47.3429" lon="-2.39313">
        <ele>28</ele>
        <time>2023-11-02T02:06:43Z</time>
      </trkpt>
      <trkpt lat="47.34342" lon="-2.39284">
        <ele>27</ele>
        <time>2023-11-02T02:07:57Z</time>
      </trkpt>
      <trkpt lat="47.34379" lon="-2.39267">
        <ele>25</ele>
        <time>2023-11-02T02:08:49Z</time>
      </trkpt>
      <trkpt lat="47.34415" lon="-2.39257">
        <ele>24</ele>
        <time>2023-11-02T02:09:38Z</time>
      </trkpt>
      <trkpt lat="47.34433" lon="-2.39247">
        <ele>23</ele>
        <time>2023-11-02T02:10:03Z</time>
      </trkpt>
      <trkpt lat="47.34451" lon="-2.39242">
        <ele>22</ele>
        <time>2023-11-02T02:10:28Z</time>
      </trkpt>
      <trkpt lat="47.34468" lon="-2.39234">
        <ele>21</ele>
        <time>2023-11-02T02:10:52Z</time>
      </trkpt>
      <trkpt lat="47.34524" lon="-2.39223">
        <ele>19</ele>
        <time>2023-11-02T02:12:07Z</time>
      </trkpt>
      <trkpt lat="47.34542" lon="-2.39222">
        <ele>19</ele>
        <time>2023-11-02T02:12:31Z</time>
      </trkpt>
      <trkpt lat="47.34561" lon="-2.39226">
        <ele>18</ele>
        <time>2023-11-02T02:12:57Z</time>
      </trkpt>
      <trkpt lat="47.34628" lon="-2.39271">
        <ele>17</ele>
        <time>2023-11-02T02:14:35Z</time>
      </trkpt>
      <trkpt lat="47.34644" lon="-2.39285">
        <ele>17</ele>
        <time>2023-11-02T02:15:00Z</time>
      </trkpt>
      <trkpt lat="47.34658" lon="-2.39303">
        <ele>17</ele>
        <time>2023-11-02T02:15:24Z</time>
      </trkpt>
      <trkpt lat="47.3467" lon="-2.39324">
        <ele>17</ele>
        <time>2023-11-02T02:15:49Z</time>
      </trkpt>
      <trkpt lat="47.34689" lon="-2.39371">
        <ele>17</ele>
        <time>2023-11-02T02:16:39Z</time>
      </trkpt>
      <trkpt lat="47.34694" lon="-2.39397">
        <ele>18</ele>
        <time>2023-11-02T02:17:03Z</time>
      </trkpt>
      <trkpt lat="47.34717" lon="-2.39473">
        <ele>17</ele>
        <time>2023-11-02T02:18:18Z</time>
      </trkpt>
      <trkpt lat="47.34716" lon="-2.39527">
        <ele>18</ele>
        <time>2023-11-02T02:19:07Z</time>
      </trkpt>
      <trkpt lat="47.34718" lon="-2.39554">
        <ele>19</ele>
        <time>2023-11-02T02:19:32Z</time>
      </trkpt>
      <trkpt lat="47.34715" lon="-2.39583">
        <ele>20</ele>
        <time>2023-11-02T02:19:58Z</time>
      </trkpt>
      <trkpt lat="47.34709" lon="-2.39608">
        <ele>20</ele>
        <time>2023-11-02T02:20:22Z</time>
      </trkpt>
      <trkpt lat="47.34689" lon="-2.39655">
        <ele>20</ele>
        <time>2023-11-02T02:21:13Z</time>
      </trkpt>
      <trkpt lat="47.34682" lon="-2.39681">
        <ele>20</ele>
        <time>2023-11-02T02:21:38Z</time>
      </trkpt>
      <trkpt lat="47.34679" lon="-2.39735">
        <ele>21</ele>
        <time>2023-11-02T02:22:27Z</time>
      </trkpt>
      <trkpt lat="47.34671" lon="-2.3976">
        <ele>21</ele>
        <time>2023-11-02T02:22:52Z</time>
      </trkpt>
      <trkpt lat="47.34667" lon="-2.39786">
        <ele>22</ele>
        <time>2023-11-02T02:23:16Z</time>
      </trkpt>
      <trkpt lat="47.34653" lon="-2.39805">
        <ele>22</ele>
        <time>2023-11-02T02:23:41Z</time>
      </trkpt>
      <trkpt lat="47.34643" lon="-2.39828">
        <ele>23</ele>
        <time>2023-11-02T02:24:06Z</time>
      </trkpt>
      <trkpt lat="47.3463" lon="-2.39848">
        <ele>23</ele>
        <time>2023-11-02T02:24:31Z</time>
      </trkpt>
      <trkpt lat="47.34614" lon="-2.39861">
        <ele>23</ele>
        <time>2023-11-02T02:24:55Z</time>
      </trkpt>
      <trkpt lat="47.34609" lon="-2.39887">
        <ele>23</ele>
        <time>2023-11-02T02:25:20Z</time>
      </trkpt>
      <trkpt lat="47.346" lon="-2.39911">
        <ele>24</ele>
        <time>2023-11-02T02:25:45Z</time>
      </trkpt>
      <trkpt lat="47.34617" lon="-2.39921">
        <ele>24</ele>
        <time>2023-11-02T02:26:09Z</time>
      </trkpt>
      <trkpt lat="47.34606" lon="-2.39945">
        <ele>23</ele>
        <time>2023-11-02T02:26:35Z</time>
      </trkpt>
      <trkpt lat="47.34593" lon="-2.39964">
        <ele>23</ele>
        <time>2023-11-02T02:27:00Z</time>
      </trkpt>
      <trkpt lat="47.3459" lon="-2.39991">
        <ele>23</ele>
        <time>2023-11-02T02:27:24Z</time>
      </trkpt>
      <trkpt lat="47.34601" lon="-2.40014">
        <ele>23</ele>
        <time>2023-11-02T02:27:50Z</time>
      </trkpt>
      <trkpt lat="47.34652" lon="-2.40096">
        <ele>23</ele>
        <time>2023-11-02T02:29:31Z</time>
      </trkpt>
      <trkpt lat="47.34668" lon="-2.40109">
        <ele>22</ele>
        <time>2023-11-02T02:29:55Z</time>
      </trkpt>
      <trkpt lat="47.34722" lon="-2.40132">
        <ele>22</ele>
        <time>2023-11-02T02:31:10Z</time>
      </trkpt>
      <trkpt lat="47.34737" lon="-2.40149">
        <ele>22</ele>
        <time>2023-11-02T02:31:35Z</time>
      </trkpt>
      <trkpt lat="47.34763" lon="-2.40187">
        <ele>23</ele>
        <time>2023-11-02T02:32:24Z</time>
      </trkpt>
      <trkpt lat="47.34778" lon="-2.40203">
        <ele>22</ele>
        <time>2023-11-02T02:32:49Z</time>
      </trkpt>
      <trkpt lat="47.34795" lon="-2.40214">
        <ele>22</ele>
        <time>2023-11-02T02:33:13Z</time>
      </trkpt>
      <trkpt lat="47.34804" lon="-2.40239">
        <ele>22</ele>
        <time>2023-11-02T02:33:39Z</time>
      </trkpt>
      <trkpt lat="47.34841" lon="-2.403">
        <ele>20</ele>
        <time>2023-11-02T02:34:53Z</time>
      </trkpt>
      <trkpt lat="47.34851" lon="-2.40324">
        <ele>19</ele>
        <time>2023-11-02T02:35:19Z</time>
      </trkpt>
      <trkpt lat="47.34874" lon="-2.40427">
        <ele>17</ele>
        <time>2023-11-02T02:36:57Z</time>
      </trkpt>
      <trkpt lat="47.34886" lon="-2.40537">
        <ele>15</ele>
        <time>2023-11-02T02:38:37Z</time>
      </trkpt>
      <trkpt lat="47.34866" lon="-2.40582">
        <ele>15</ele>
        <time>2023-11-02T02:39:26Z</time>
      </trkpt>
      <trkpt lat="47.34853" lon="-2.40603">
        <ele>15</ele>
        <time>2023-11-02T02:39:52Z</time>
      </trkpt>
      <trkpt lat="47.34838" lon="-2.40619">
        <ele>15</ele>
        <time>2023-11-02T02:40:16Z</time>
      </trkpt>
      <trkpt lat="47.34829" lon="-2.40643">
        <ele>16</ele>
        <time>2023-11-02T02:40:41Z</time>
      </trkpt>
      <trkpt lat="47.34819" lon="-2.40695">
        <ele>16</ele>
        <time>2023-11-02T02:41:30Z</time>
      </trkpt>
      <trkpt lat="47.34819" lon="-2.40722">
        <ele>17</ele>
        <time>2023-11-02T02:41:55Z</time>
      </trkpt>
      <trkpt lat="47.34825" lon="-2.40749">
        <ele>18</ele>
        <time>2023-11-02T02:42:20Z</time>
      </trkpt>
      <trkpt lat="47.34837" lon="-2.40769">
        <ele>19</ele>
        <time>2023-11-02T02:42:44Z</time>
      </trkpt>
      <trkpt lat="47.34873" lon="-2.40768">
        <ele>18</ele>
        <time>2023-11-02T02:43:32Z</time>
      </trkpt>
      <trkpt lat="47.34892" lon="-2.40774">
        <ele>18</ele>
        <time>2023-11-02T02:43:58Z</time>
      </trkpt>
      <trkpt lat="47.34922" lon="-2.40809">
        <ele>19</ele>
        <time>2023-11-02T02:44:49Z</time>
      </trkpt>
      <trkpt lat="47.34932" lon="-2.40831">
        <ele>19</ele>
        <time>2023-11-02T02:45:13Z</time>
      </trkpt>
      <trkpt lat="47.34939" lon="-2.40856">
        <ele>19</ele>
        <time>2023-11-02T02:45:38Z</time>
      </trkpt>
      <trkpt lat="47.34942" lon="-2.40883">
        <ele>20</ele>
        <time>2023-11-02T02:46:03Z</time>
      </trkpt>
      <trkpt lat="47.34941" lon="-2.40964">
        <ele>22</ele>
        <time>2023-11-02T02:47:16Z</time>
      </trkpt>
      <trkpt lat="47.34937" lon="-2.41018">
        <ele>22</ele>
        <time>2023-11-02T02:48:05Z</time>
      </trkpt>
      <trkpt lat="47.34941" lon="-2.41045">
        <ele>21</ele>
        <time>2023-11-02T02:48:30Z</time>
      </trkpt>
      <trkpt lat="47.34951" lon="-2.41068">
        <ele>19</ele>
        <time>2023-11-02T02:48:55Z</time>
      </trkpt>
      <trkpt lat="47.34957" lon="-2.41093">
        <ele>18</ele>
        <time>2023-11-02T02:49:19Z</time>
      </trkpt>
      <trkpt lat="47.34985" lon="-2.41163">
        <ele>16</ele>
        <time>2023-11-02T02:50:32Z</time>
      </trkpt>
      <trkpt lat="47.35007" lon="-2.41206">
        <ele>16</ele>
        <time>2023-11-02T02:51:21Z</time>
      </trkpt>
      <trkpt lat="47.35037" lon="-2.41277">
        <ele>18</ele>
        <time>2023-11-02T02:52:36Z</time>
      </trkpt>
      <trkpt lat="47.3508" lon="-2.414">
        <ele>16</ele>
        <time>2023-11-02T02:54:42Z</time>
      </trkpt>
      <trkpt lat="47.35067" lon="-2.41419">
        <ele>17</ele>
        <time>2023-11-02T02:55:06Z</time>
      </trkpt>
      <trkpt lat="47.3505" lon="-2.41431">
        <ele>18</ele>
        <time>2023-11-02T02:55:31Z</time>
      </trkpt>
      <trkpt lat="47.35031" lon="-2.41437">
        <ele>18</ele>
        <time>2023-11-02T02:55:57Z</time>
      </trkpt>
      <trkpt lat="47.35016" lon="-2.41452">
        <ele>19</ele>
        <time>2023-11-02T02:56:21Z</time>
      </trkpt>
      <trkpt lat="47.3498" lon="-2.41465">
        <ele>20</ele>
        <time>2023-11-02T02:57:11Z</time>
      </trkpt>
      <trkpt lat="47.34943" lon="-2.41474">
        <ele>20</ele>
        <time>2023-11-02T02:58:01Z</time>
      </trkpt>
      <trkpt lat="47.34889" lon="-2.41496">
        <ele>20</ele>
        <time>2023-11-02T02:59:15Z</time>
      </trkpt>
      <trkpt lat="47.34871" lon="-2.41497">
        <ele>20</ele>
        <time>2023-11-02T02:59:40Z</time>
      </trkpt>
      <trkpt lat="47.34834" lon="-2.41508">
        <ele>22</ele>
        <time>2023-11-02T03:00:30Z</time>
      </trkpt>
      <trkpt lat="47.34817" lon="-2.41517">
        <ele>21</ele>
        <time>2023-11-02T03:00:54Z</time>
      </trkpt>
      <trkpt lat="47.34799" lon="-2.41514">
        <ele>21</ele>
        <time>2023-11-02T03:01:18Z</time>
      </trkpt>
      <trkpt lat="47.34743" lon="-2.41528">
        <ele>20</ele>
        <time>2023-11-02T03:02:34Z</time>
      </trkpt>
      <trkpt lat="47.34724" lon="-2.41535">
        <ele>20</ele>
        <time>2023-11-02T03:03:00Z</time>
      </trkpt>
      <trkpt lat="47.34706" lon="-2.41538">
        <ele>20</ele>
        <time>2023-11-02T03:03:24Z</time>
      </trkpt>
      <trkpt lat="47.34688" lon="-2.41546">
        <ele>20</ele>
        <time>2023-11-02T03:03:49Z</time>
      </trkpt>
      <trkpt lat="47.34652" lon="-2.41555">
        <ele>20</ele>
        <time>2023-11-02T03:04:38Z</time>
      </trkpt>
      <trkpt lat="47.34506" lon="-2.41612">
        <ele>23</ele>
        <time>2023-11-02T03:08:00Z</time>
      </trkpt>
      <trkpt lat="47.34471" lon="-2.41631">
        <ele>24</ele>
        <time>2023-11-02T03:08:49Z</time>
      </trkpt>
      <trkpt lat="47.34455" lon="-2.41644">
        <ele>25</ele>
        <time>2023-11-02T03:09:14Z</time>
      </trkpt>
      <trkpt lat="47.3444" lon="-2.41661">
        <ele>25</ele>
        <time>2023-11-02T03:09:39Z</time>
      </trkpt>
      <trkpt lat="47.34427" lon="-2.41681">
        <ele>26</ele>
        <time>2023-11-02T03:10:04Z</time>
      </trkpt>
      <trkpt lat="47.3441" lon="-2.41696">
        <ele>27</ele>
        <time>2023-11-02T03:10:30Z</time>
      </trkpt>
      <trkpt lat="47.3436" lon="-2.41732">
        <ele>27</ele>
        <time>2023-11-02T03:11:45Z</time>
      </trkpt>
      <trkpt lat="47.34343" lon="-2.41741">
        <ele>28</ele>
        <time>2023-11-02T03:12:09Z</time>
      </trkpt>
      <trkpt lat="47.34325" lon="-2.41746">
        <ele>28</ele>
        <time>2023-11-02T03:12:33Z</time>
      </trkpt>
      <trkpt lat="47.34256" lon="-2.41786">
        <ele>29</ele>
        <time>2023-11-02T03:14:12Z</time>
      </trkpt>
      <trkpt lat="47.34237" lon="-2.41791">
        <ele>30</ele>
        <time>2023-11-02T03:14:38Z</time>
      </trkpt>
      <trkpt lat="47.34225" lon="-2.4177">
        <ele>29</ele>
        <time>2023-11-02T03:15:03Z</time>
      </trkpt>
      <trkpt lat="47.3421" lon="-2.41721">
        <ele>28</ele>
        <time>2023-11-02T03:15:51Z</time>
      </trkpt>
      <trkpt lat="47.34197" lon="-2.41703">
        <ele>28</ele>
        <time>2023-11-02T03:16:15Z</time>
      </trkpt>
      <trkpt lat="47.3418" lon="-2.41712">
        <ele>29</ele>
        <time>2023-11-02T03:16:39Z</time>
      </trkpt>
      <trkpt lat="47.34134" lon="-2.41759">
        <ele>31</ele>
        <time>2023-11-02T03:17:54Z</time>
      </trkpt>
      <trkpt lat="47.34117" lon="-2.41769">
        <ele>31</ele>
        <time>2023-11-02T03:18:18Z</time>
      </trkpt>
      <trkpt lat="47.3407" lon="-2.41812">
        <ele>32</ele>
        <time>2023-11-02T03:19:32Z</time>
      </trkpt>
      <trkpt lat="47.34043" lon="-2.41849">
        <ele>32</ele>
        <time>2023-11-02T03:20:21Z</time>
      </trkpt>
      <trkpt lat="47.34019" lon="-2.41891">
        <ele>32</ele>
        <time>2023-11-02T03:21:11Z</time>
      </trkpt>
      <trkpt lat="47.33966" lon="-2.41965">
        <ele>35</ele>
        <time>2023-11-02T03:22:48Z</time>
      </trkpt>
      <trkpt lat="47.33954" lon="-2.41986">
        <ele>36</ele>
        <time>2023-11-02T03:23:13Z</time>
      </trkpt>
      <trkpt lat="47.33923" lon="-2.42018">
        <ele>38</ele>
        <time>2023-11-02T03:24:04Z</time>
      </trkpt>
      <trkpt lat="47.33823" lon="-2.42092">
        <ele>37</ele>
        <time>2023-11-02T03:26:33Z</time>
      </trkpt>
      <trkpt lat="47.33818" lon="-2.42118">
        <ele>37</ele>
        <time>2023-11-02T03:26:57Z</time>
      </trkpt>
      <trkpt lat="47.33828" lon="-2.4217">
        <ele>37</ele>
        <time>2023-11-02T03:27:46Z</time>
      </trkpt>
      <trkpt lat="47.33842" lon="-2.42278">
        <ele>39</ele>
        <time>2023-11-02T03:29:26Z</time>
      </trkpt>
      <trkpt lat="47.33853" lon="-2.42301">
        <ele>40</ele>
        <time>2023-11-02T03:29:51Z</time>
      </trkpt>
      <trkpt lat="47.33858" lon="-2.42411">
        <ele>40</ele>
        <time>2023-11-02T03:31:31Z</time>
      </trkpt>
      <trkpt lat="47.33866" lon="-2.42437">
        <ele>40</ele>
        <time>2023-11-02T03:31:57Z</time>
      </trkpt>
      <trkpt lat="47.33881" lon="-2.42455">
        <ele>40</ele>
        <time>2023-11-02T03:32:23Z</time>
      </trkpt>
      <trkpt lat="47.33863" lon="-2.42461">
        <ele>39</ele>
        <time>2023-11-02T03:32:47Z</time>
      </trkpt>
      <trkpt lat="47.33843" lon="-2.42464">
        <ele>39</ele>
        <time>2023-11-02T03:33:14Z</time>
      </trkpt>
      <trkpt lat="47.33839" lon="-2.42493">
        <ele>38</ele>
        <time>2023-11-02T03:33:41Z</time>
      </trkpt>
      <trkpt lat="47.33818" lon="-2.4257">
        <ele>41</ele>
        <time>2023-11-02T03:34:56Z</time>
      </trkpt>
      <trkpt lat="47.33782" lon="-2.42726">
        <ele>40</ele>
        <time>2023-11-02T03:37:25Z</time>
      </trkpt>
      <trkpt lat="47.33769" lon="-2.42747">
        <ele>39</ele>
        <time>2023-11-02T03:37:51Z</time>
      </trkpt>
      <trkpt lat="47.33751" lon="-2.42755">
        <ele>39</ele>
        <time>2023-11-02T03:38:16Z</time>
      </trkpt>
      <trkpt lat="47.33661" lon="-2.42733">
        <ele>41</ele>
        <time>2023-11-02T03:40:17Z</time>
      </trkpt>
      <trkpt lat="47.33624" lon="-2.4274">
        <ele>41</ele>
        <time>2023-11-02T03:41:07Z</time>
      </trkpt>
      <trkpt lat="47.33587" lon="-2.42751">
        <ele>41</ele>
        <time>2023-11-02T03:41:58Z</time>
      </trkpt>
      <trkpt lat="47.3357" lon="-2.42739">
        <ele>41</ele>
        <time>2023-11-02T03:42:23Z</time>
      </trkpt>
      <trkpt lat="47.33572" lon="-2.42712">
        <ele>42</ele>
        <time>2023-11-02T03:42:47Z</time>
      </trkpt>
      <trkpt lat="47.33583" lon="-2.42661">
        <ele>42</ele>
        <time>2023-11-02T03:43:36Z</time>
      </trkpt>
      <trkpt lat="47.33584" lon="-2.42634">
        <ele>42</ele>
        <time>2023-11-02T03:44:00Z</time>
      </trkpt>
      <trkpt lat="47.33573" lon="-2.42553">
        <ele>42</ele>
        <time>2023-11-02T03:45:15Z</time>
      </trkpt>
      <trkpt lat="47.33567" lon="-2.42526">
        <ele>43</ele>
        <time>2023-11-02T03:45:41Z</time>
      </trkpt>
      <trkpt lat="47.33553" lon="-2.42507">
        <ele>43</ele>
        <time>2023-11-02T03:46:06Z</time>
      </trkpt>
      <trkpt lat="47.33535" lon="-2.42498">
        <ele>44</ele>
        <time>2023-11-02T03:46:31Z</time>
      </trkpt>
      <trkpt lat="47.33498" lon="-2.42488">
        <ele>45</ele>
        <time>2023-11-02T03:47:21Z</time>
      </trkpt>
      <trkpt lat="47.33482" lon="-2.42473">
        <ele>46</ele>
        <time>2023-11-02T03:47:47Z</time>
      </trkpt>
      <trkpt lat="47.33468" lon="-2.42454">
        <ele>47</ele>
        <time>2023-11-02T03:48:12Z</time>
      </trkpt>
      <trkpt lat="47.33451" lon="-2.42444">
        <ele>47</ele>
        <time>2023-11-02T03:48:37Z</time>
      </trkpt>
      <trkpt lat="47.33396" lon="-2.42428">
        <ele>49</ele>
        <time>2023-11-02T03:49:51Z</time>
      </trkpt>
      <trkpt lat="47.33366" lon="-2.42462">
        <ele>48</ele>
        <time>2023-11-02T03:50:42Z</time>
      </trkpt>
      <trkpt lat="47.33299" lon="-2.4251">
        <ele>47</ele>
        <time>2023-11-02T03:52:21Z</time>
      </trkpt>
      <trkpt lat="47.33217" lon="-2.42579">
        <ele>46</ele>
        <time>2023-11-02T03:54:27Z</time>
      </trkpt>
      <trkpt lat="47.33203" lon="-2.42596">
        <ele>45</ele>
        <time>2023-11-02T03:54:51Z</time>
      </trkpt>
      <trkpt lat="47.33173" lon="-2.42625">
        <ele>45</ele>
        <time>2023-11-02T03:55:39Z</time>
      </trkpt>
      <trkpt lat="47.33159" lon="-2.42643">
        <ele>45</ele>
        <time>2023-11-02T03:56:04Z</time>
      </trkpt>
      <trkpt lat="47.33143" lon="-2.42631">
        <ele>46</ele>
        <time>2023-11-02T03:56:28Z</time>
      </trkpt>
    </trkseg>
  </trk>
</gpx>